createdAt,value
2018-11-10T00:00:37.162Z,1.00
2018-11-10T00:03:06.539Z,0.90
2018-11-10T00:05:35.132Z,0.90
2018-11-10T00:08:07.247Z,1.30
2018-11-10T00:10:35.780Z,0.80
2018-11-10T00:13:07.478Z,0.80
2018-11-10T00:15:35.986Z,0.70
2018-11-10T00:18:05.238Z,0.75
2018-11-10T00:20:34.759Z,1.00
2018-11-10T00:23:05.142Z,0.60
2018-11-10T00:25:33.921Z,0.60
2018-11-10T00:28:04.511Z,0.65
2018-11-10T00:30:32.981Z,0.60
2018-11-10T00:33:05.169Z,0.60
2018-11-10T00:35:34.048Z,0.50
2018-11-10T00:38:05.550Z,0.93
2018-11-10T00:40:33.982Z,0.85
2018-11-10T00:43:04.361Z,0.80
2018-11-10T00:45:33.667Z,0.40
2018-11-10T00:48:05.706Z,0.47
2018-11-10T00:50:34.119Z,0.60
2018-11-10T00:53:06.742Z,0.80
2018-11-10T00:55:35.129Z,0.55
2018-11-10T00:58:08.063Z,0.72
2018-11-10T01:00:36.461Z,0.88
2018-11-10T01:03:07.164Z,0.75
2018-11-10T01:05:36.137Z,0.70
2018-11-10T01:08:07.921Z,0.80
2018-11-10T01:10:36.187Z,0.70
2018-11-10T01:13:05.081Z,0.80
2018-11-10T01:15:33.451Z,1.15
2018-11-10T01:18:04.747Z,0.70
2018-11-10T01:20:33.122Z,0.68
2018-11-10T01:23:02.826Z,0.60
2018-11-10T01:25:31.289Z,0.60
2018-11-10T01:27:59.789Z,0.75
2018-11-10T01:30:28.045Z,0.72
2018-11-10T01:32:57.014Z,0.50
2018-11-10T01:35:25.713Z,0.60
2018-11-10T01:37:54.058Z,0.60
2018-11-10T01:40:22.420Z,0.68
2018-11-10T01:42:50.720Z,0.60
2018-11-10T01:45:19.114Z,0.50
2018-11-10T01:47:47.703Z,0.53
2018-11-10T01:50:16.025Z,0.60
2018-11-10T01:52:45.152Z,0.50
2018-11-10T01:55:13.434Z,0.80
2018-11-10T01:57:42.331Z,0.68
2018-11-10T02:00:16.135Z,0.45
2018-11-10T02:02:45.074Z,0.95
2018-11-10T02:05:13.600Z,0.50
2018-11-10T02:07:42.062Z,0.50
2018-11-10T02:10:11.053Z,0.53
2018-11-10T02:12:39.410Z,0.40
2018-11-10T02:15:11.629Z,0.45
2018-11-10T02:17:39.996Z,0.30
2018-11-10T02:20:09.540Z,0.30
2018-11-10T02:22:37.989Z,0.50
2018-11-10T02:25:07.814Z,0.40
2018-11-10T02:27:36.733Z,0.40
2018-11-10T02:30:08.594Z,0.40
2018-11-10T02:32:36.943Z,0.40
2018-11-10T02:35:07.260Z,0.42
2018-11-10T02:37:35.922Z,0.40
2018-11-10T02:40:09.128Z,0.40
2018-11-10T02:42:38.487Z,0.50
2018-11-10T02:45:08.666Z,0.30
2018-11-10T02:47:36.946Z,0.40
2018-11-10T02:50:06.498Z,0.55
2018-11-10T02:52:36.281Z,0.60
2018-11-10T02:55:06.747Z,0.40
2018-11-10T02:57:35.748Z,0.50
2018-11-10T03:00:05.701Z,0.35
2018-11-10T03:02:33.993Z,0.37
2018-11-10T03:05:03.701Z,0.40
2018-11-10T03:07:32.005Z,0.20
2018-11-10T03:10:00.314Z,0.50
2018-11-10T03:12:30.632Z,0.30
2018-11-10T03:14:58.908Z,0.33
2018-11-10T03:17:27.177Z,0.40
2018-11-10T03:19:55.428Z,0.50
2018-11-10T03:22:23.710Z,0.68
2018-11-10T03:24:51.952Z,0.60
2018-11-10T03:27:21.049Z,0.80
2018-11-10T03:29:49.582Z,0.50
2018-11-10T03:32:19.068Z,0.50
2018-11-10T03:34:49.699Z,0.60
2018-11-10T03:37:17.946Z,0.60
2018-11-10T03:39:46.214Z,0.60
2018-11-10T03:42:19.842Z,0.70
2018-11-10T03:44:49.654Z,1.15
2018-11-10T03:47:18.101Z,0.75
2018-11-10T03:49:46.392Z,0.55
2018-11-10T03:52:14.647Z,0.65
2018-11-10T03:54:42.933Z,0.60
2018-11-10T03:57:11.911Z,0.60
2018-11-10T03:59:43.776Z,0.72
2018-11-10T04:02:13.235Z,0.80
2018-11-10T04:04:41.587Z,0.60
2018-11-10T04:07:10.626Z,0.88
2018-11-10T04:09:38.878Z,0.60
2018-11-10T04:12:07.213Z,0.50
2018-11-10T04:14:35.601Z,0.60
2018-11-10T04:17:04.591Z,0.50
2018-11-10T04:19:32.892Z,0.50
2018-11-10T04:22:02.685Z,0.68
2018-11-10T04:24:31.059Z,0.75
2018-11-10T04:26:59.333Z,0.42
2018-11-10T04:29:30.881Z,0.42
2018-11-10T04:31:59.416Z,0.30
2018-11-10T04:34:27.646Z,0.47
2018-11-10T04:36:56.446Z,0.33
2018-11-10T04:39:24.717Z,0.60
2018-11-10T04:41:53.028Z,0.60
2018-11-10T04:44:21.966Z,1.00
2018-11-10T04:46:50.410Z,1.10
2018-11-10T04:49:18.759Z,0.60
2018-11-10T04:51:47.023Z,0.62
2018-11-10T04:54:15.320Z,0.88
2018-11-10T04:56:43.609Z,1.32
2018-11-10T04:59:12.558Z,0.78
2018-11-10T05:01:40.950Z,0.62
2018-11-10T05:04:09.882Z,1.02
2018-11-10T05:06:38.471Z,0.90
2018-11-10T05:09:09.302Z,1.22
2018-11-10T05:11:37.674Z,0.82
2018-11-10T05:14:06.385Z,0.80
2018-11-10T05:16:34.714Z,1.05
2018-11-10T05:19:04.824Z,0.82
2018-11-10T05:21:33.131Z,1.30
2018-11-10T05:24:01.982Z,1.60
2018-11-10T05:26:30.232Z,1.95
2018-11-10T05:28:59.294Z,1.57
2018-11-10T05:31:28.080Z,2.62
2018-11-10T05:33:56.433Z,2.40
2018-11-10T05:36:24.685Z,2.05
2018-11-10T05:38:53.046Z,2.02
2018-11-10T05:41:22.319Z,2.72
2018-11-10T05:43:51.070Z,2.60
2018-11-10T05:46:19.390Z,2.90
2018-11-10T05:48:47.672Z,2.85
2018-11-10T05:51:15.940Z,3.05
2018-11-10T05:53:44.250Z,2.90
2018-11-10T05:56:13.034Z,3.37
2018-11-10T05:58:41.310Z,2.90
2018-11-10T06:01:09.655Z,2.87
2018-11-10T06:03:38.324Z,2.80
2018-11-10T06:06:07.075Z,3.02
2018-11-10T06:08:35.337Z,2.62
2018-11-10T06:11:05.456Z,2.52
2018-11-10T06:13:33.735Z,3.22
2018-11-10T06:16:05.826Z,3.62
2018-11-10T06:18:34.215Z,2.58
2018-11-10T06:21:05.354Z,3.17
2018-11-10T06:23:33.675Z,2.90
2018-11-10T06:26:04.505Z,3.55
2018-11-10T06:28:32.879Z,3.10
2018-11-10T06:31:04.268Z,3.75
2018-11-10T06:33:32.587Z,3.90
2018-11-10T06:36:07.103Z,3.65
2018-11-10T06:38:35.375Z,3.85
2018-11-10T06:41:05.330Z,3.52
2018-11-10T06:43:33.626Z,4.35
2018-11-10T06:46:04.418Z,3.67
2018-11-10T06:48:32.860Z,3.37
2018-11-10T06:51:02.015Z,4.20
2018-11-10T06:53:30.282Z,4.58
2018-11-10T06:55:58.557Z,4.20
2018-11-10T06:58:26.861Z,4.17
2018-11-10T07:00:55.110Z,3.72
2018-11-10T07:03:23.444Z,3.47
2018-11-10T07:05:51.768Z,4.08
2018-11-10T07:08:20.073Z,4.00
2018-11-10T07:10:49.472Z,4.28
2018-11-10T07:13:18.427Z,4.55
2018-11-10T07:15:46.748Z,5.00
2018-11-10T07:18:15.207Z,3.87
2018-11-10T07:20:43.554Z,4.47
2018-11-10T07:23:11.827Z,4.28
2018-11-10T07:25:40.591Z,3.75
2018-11-10T07:28:09.026Z,4.53
2018-11-10T07:30:37.334Z,4.12
2018-11-10T07:33:06.880Z,3.47
2018-11-10T07:35:35.195Z,4.85
2018-11-10T07:38:05.482Z,4.55
2018-11-10T07:40:33.758Z,3.80
2018-11-10T07:43:05.844Z,3.92
2018-11-10T07:45:34.134Z,3.83
2018-11-10T07:48:04.349Z,4.08
2018-11-10T07:50:32.743Z,3.47
2018-11-10T07:53:05.568Z,4.03
2018-11-10T07:55:33.838Z,3.47
2018-11-10T07:58:05.540Z,3.22
2018-11-10T08:00:33.855Z,4.28
2018-11-10T08:03:05.370Z,3.98
2018-11-10T08:05:33.662Z,2.98
2018-11-10T08:08:06.423Z,2.60
2018-11-10T08:10:34.718Z,2.80
2018-11-10T08:13:07.802Z,2.90
2018-11-10T08:15:36.130Z,3.40
2018-11-10T08:18:08.641Z,3.17
2018-11-10T08:20:37.046Z,3.02
2018-11-10T08:23:05.777Z,2.33
2018-11-10T08:25:34.054Z,3.50
2018-11-10T08:28:05.299Z,3.30
2018-11-10T08:30:35.051Z,2.62
2018-11-10T08:33:06.452Z,3.22
2018-11-10T08:35:34.881Z,3.05
2018-11-10T08:38:05.710Z,2.30
2018-11-10T08:40:34.010Z,2.72
2018-11-10T08:43:05.058Z,2.15
2018-11-10T08:45:33.479Z,2.15
2018-11-10T08:48:08.527Z,2.80
2018-11-10T08:50:36.947Z,3.05
2018-11-10T08:53:07.883Z,2.33
2018-11-10T08:55:36.189Z,2.70
2018-11-10T08:58:06.725Z,2.87
2018-11-10T09:00:35.050Z,3.55
2018-11-10T09:03:05.535Z,2.22
2018-11-10T09:05:33.776Z,2.95
2018-11-10T09:08:05.709Z,2.47
2018-11-10T09:10:34.211Z,3.10
2018-11-10T09:13:04.603Z,2.58
2018-11-10T09:15:32.978Z,2.08
2018-11-10T09:18:04.371Z,2.50
2018-11-10T09:20:36.890Z,2.10
2018-11-10T09:23:05.239Z,2.12
2018-11-10T09:25:33.590Z,2.45
2018-11-10T09:28:02.890Z,2.65
2018-11-10T09:30:31.165Z,2.30
2018-11-10T09:32:59.930Z,3.47
2018-11-10T09:35:28.266Z,3.40
2018-11-10T09:37:56.542Z,3.30
2018-11-10T09:40:24.850Z,3.37
2018-11-10T09:42:53.110Z,3.22
2018-11-10T09:45:21.399Z,3.33
2018-11-10T09:47:49.676Z,3.30
2018-11-10T09:50:20.823Z,3.17
2018-11-10T09:52:49.331Z,3.67
2018-11-10T09:55:18.161Z,4.53
2018-11-10T09:57:47.233Z,4.05
2018-11-10T10:00:20.197Z,3.80
2018-11-10T10:02:50.418Z,3.98
2018-11-10T10:05:18.495Z,3.55
2018-11-10T10:07:46.798Z,4.15
2018-11-10T10:10:16.270Z,4.28
2018-11-10T10:12:44.953Z,3.35
2018-11-10T10:15:14.583Z,3.58
2018-11-10T10:17:43.693Z,3.50
2018-11-10T10:20:14.388Z,4.65
2018-11-10T10:22:43.075Z,4.60
2018-11-10T10:25:12.691Z,4.58
2018-11-10T10:27:41.370Z,4.28
2018-11-10T10:30:14.085Z,4.53
2018-11-10T10:32:43.063Z,4.45
2018-11-10T10:35:11.689Z,4.40
2018-11-10T10:37:40.999Z,3.98
2018-11-10T10:40:10.978Z,5.55
2018-11-10T10:42:39.293Z,5.20
2018-11-10T10:45:10.247Z,4.35
2018-11-10T10:47:39.551Z,5.67
2018-11-10T10:50:09.783Z,4.53
2018-11-10T10:52:39.324Z,5.37
2018-11-10T10:55:08.007Z,4.75
2018-11-10T10:57:36.327Z,3.98
2018-11-10T11:00:14.690Z,3.75
2018-11-10T11:02:49.575Z,5.40
2018-11-10T11:05:24.042Z,5.05
2018-11-10T11:07:52.758Z,5.10
2018-11-10T11:10:21.157Z,4.80
2018-11-10T11:12:49.547Z,4.70
2018-11-10T11:15:18.970Z,5.40
2018-11-10T11:17:47.235Z,5.50
2018-11-10T11:20:15.612Z,5.40
2018-11-10T11:22:43.958Z,5.15
2018-11-10T11:25:13.297Z,5.62
2018-11-10T11:27:42.171Z,5.10
2018-11-10T11:30:11.464Z,5.62
2018-11-10T11:32:40.007Z,4.80
2018-11-10T11:35:11.521Z,5.55
2018-11-10T11:37:40.481Z,6.17
2018-11-10T11:40:10.725Z,5.45
2018-11-10T11:42:39.094Z,4.83
2018-11-10T11:45:08.703Z,5.17
2018-11-10T11:47:36.975Z,5.80
2018-11-10T11:50:06.483Z,5.55
2018-11-10T11:52:34.790Z,5.67
2018-11-10T11:55:05.561Z,5.45
2018-11-10T11:57:34.050Z,5.58
2018-11-10T12:00:08.821Z,5.42
2018-11-10T12:02:37.149Z,5.30
2018-11-10T12:05:07.100Z,4.70
2018-11-10T12:07:35.376Z,5.28
2018-11-10T12:10:09.751Z,5.17
2018-11-10T12:12:38.234Z,4.55
2018-11-10T12:15:08.033Z,4.37
2018-11-10T12:17:36.729Z,6.00
2018-11-10T12:20:06.712Z,4.80
2018-11-10T12:22:35.070Z,4.97
2018-11-10T12:25:08.088Z,5.42
2018-11-10T12:27:36.465Z,5.75
2018-11-10T12:30:09.277Z,5.20
2018-11-10T12:32:40.062Z,5.50
2018-11-10T12:35:10.395Z,5.08
2018-11-10T12:37:39.376Z,5.53
2018-11-10T12:40:09.250Z,5.05
2018-11-10T12:42:38.495Z,5.25
2018-11-10T12:45:08.033Z,5.15
2018-11-10T12:47:36.390Z,4.40
2018-11-10T12:50:09.870Z,4.72
2018-11-10T12:52:38.202Z,5.17
2018-11-10T12:55:07.649Z,4.80
2018-11-10T12:57:35.942Z,5.35
2018-11-10T13:00:06.419Z,5.42
2018-11-10T13:02:35.240Z,5.50
2018-11-10T13:05:06.982Z,5.53
2018-11-10T13:07:35.350Z,5.97
2018-11-10T13:10:09.069Z,5.83
2018-11-10T13:12:38.018Z,5.50
2018-11-10T13:15:07.381Z,7.05
2018-11-10T13:17:35.794Z,5.42
2018-11-10T13:20:15.802Z,5.17
2018-11-10T13:22:44.126Z,5.35
2018-11-10T13:25:13.375Z,5.95
2018-11-10T13:27:42.715Z,6.00
2018-11-10T13:30:12.826Z,6.12
2018-11-10T13:32:41.172Z,6.47
2018-11-10T13:35:10.015Z,5.50
2018-11-10T13:37:38.473Z,5.28
2018-11-10T13:40:10.467Z,5.33
2018-11-10T13:42:38.801Z,5.12
2018-11-10T13:45:08.910Z,5.55
2018-11-10T13:47:37.692Z,5.37
2018-11-10T13:50:08.960Z,5.35
2018-11-10T13:52:37.997Z,5.50
2018-11-10T13:55:06.129Z,5.62
2018-11-10T13:57:36.790Z,5.78
2018-11-10T14:00:11.030Z,5.85
2018-11-10T14:02:39.374Z,5.45
2018-11-10T14:05:07.801Z,5.10
2018-11-10T14:07:36.234Z,5.67
2018-11-10T14:10:14.054Z,4.92
2018-11-10T14:12:48.291Z,5.30
2018-11-10T14:15:16.883Z,5.40
2018-11-10T14:17:45.248Z,4.85
2018-11-10T14:20:14.724Z,5.00
2018-11-10T14:22:43.489Z,5.95
2018-11-10T14:25:13.167Z,4.95
2018-11-10T14:27:42.794Z,5.15
2018-11-10T14:30:13.143Z,5.60
2018-11-10T14:32:41.955Z,5.17
2018-11-10T14:35:10.930Z,5.35
2018-11-10T14:37:39.391Z,5.55
2018-11-10T14:40:11.110Z,5.65
2018-11-10T14:42:40.109Z,5.40
2018-11-10T14:45:10.312Z,5.28
2018-11-10T14:47:38.711Z,6.15
2018-11-10T14:50:08.257Z,4.87
2018-11-10T14:52:37.424Z,5.97
2018-11-10T14:55:07.259Z,5.20
2018-11-10T14:57:35.770Z,5.28
2018-11-10T15:00:15.502Z,5.50
2018-11-10T15:02:43.971Z,5.47
2018-11-10T15:05:13.067Z,4.85
2018-11-10T15:07:42.480Z,5.65
2018-11-10T15:10:12.219Z,6.83
2018-11-10T15:12:41.216Z,5.62
2018-11-10T15:15:11.251Z,6.12
2018-11-10T15:17:40.826Z,5.80
2018-11-10T15:20:11.874Z,7.20
2018-11-10T15:22:40.865Z,6.00
2018-11-10T15:25:11.409Z,6.08
2018-11-10T15:27:40.138Z,6.85
2018-11-10T15:30:12.826Z,6.90
2018-11-10T15:32:42.222Z,6.72
2018-11-10T15:35:12.391Z,6.87
2018-11-10T15:37:41.620Z,6.97
2018-11-10T15:40:11.458Z,6.60
2018-11-10T15:42:39.859Z,6.17
2018-11-10T15:45:10.147Z,5.90
2018-11-10T15:47:38.859Z,6.50
2018-11-10T15:50:08.633Z,5.90
2018-11-10T15:52:37.279Z,6.42
2018-11-10T15:55:07.371Z,6.47
2018-11-10T15:57:36.901Z,6.25
2018-11-10T16:00:10.674Z,5.47
2018-11-10T16:02:39.090Z,6.37
2018-11-10T16:05:08.823Z,6.95
2018-11-10T16:07:37.270Z,6.03
2018-11-10T16:10:09.280Z,6.05
2018-11-10T16:12:38.132Z,7.15
2018-11-10T16:15:09.497Z,7.55
2018-11-10T16:17:38.236Z,6.53
2018-11-10T16:20:11.544Z,7.33
2018-11-10T16:22:39.999Z,7.12
2018-11-10T16:25:09.192Z,8.28
2018-11-10T16:27:38.575Z,8.35
2018-11-10T16:30:09.526Z,7.65
2018-11-10T16:32:38.692Z,6.72
2018-11-10T16:35:09.605Z,7.92
2018-11-10T16:37:37.992Z,8.13
2018-11-10T16:40:11.829Z,7.67
2018-11-10T16:42:40.951Z,8.00
2018-11-10T16:45:10.023Z,7.65
2018-11-10T16:47:38.479Z,7.50
2018-11-10T16:50:07.830Z,7.85
2018-11-10T16:52:37.366Z,8.90
2018-11-10T16:55:07.513Z,8.20
2018-11-10T16:57:36.414Z,7.65
2018-11-10T17:00:12.317Z,7.33
2018-11-10T17:02:40.961Z,8.13
2018-11-10T17:05:09.686Z,7.78
2018-11-10T17:07:38.509Z,7.83
2018-11-10T17:10:16.957Z,7.87
2018-11-10T17:12:47.620Z,8.90
2018-11-10T17:15:16.305Z,7.42
2018-11-10T17:17:45.161Z,8.23
2018-11-10T17:20:15.076Z,8.50
2018-11-10T17:22:43.952Z,8.20
2018-11-10T17:25:13.234Z,9.43
2018-11-10T17:27:42.162Z,8.80
2018-11-10T17:30:13.998Z,8.98
2018-11-10T17:32:43.585Z,8.23
2018-11-10T17:35:12.724Z,9.85
2018-11-10T17:37:41.131Z,8.50
2018-11-10T17:40:10.466Z,8.73
2018-11-10T17:42:39.101Z,9.25
2018-11-10T17:45:09.570Z,8.28
2018-11-10T17:47:38.045Z,8.55
2018-11-10T17:50:08.939Z,8.25
2018-11-10T17:52:37.833Z,7.90
2018-11-10T17:55:08.182Z,8.60
2018-11-10T17:57:38.871Z,7.95
2018-11-10T18:00:08.567Z,8.35
2018-11-10T18:02:37.132Z,8.13
2018-11-10T18:05:09.748Z,8.55
2018-11-10T18:07:39.384Z,8.00
2018-11-10T18:10:14.082Z,7.92
2018-11-10T18:12:43.662Z,7.03
2018-11-10T18:15:12.800Z,9.23
2018-11-10T18:17:42.906Z,8.10
2018-11-10T18:20:12.900Z,7.83
2018-11-10T18:22:41.516Z,8.18
2018-11-10T18:25:10.153Z,8.83
2018-11-10T18:27:38.747Z,8.38
2018-11-10T18:30:10.034Z,9.08
2018-11-10T18:32:38.694Z,9.08
2018-11-10T18:35:08.534Z,7.62
2018-11-10T18:37:37.351Z,7.78
2018-11-10T18:40:12.391Z,7.17
2018-11-10T18:42:40.829Z,8.20
2018-11-10T18:45:10.491Z,8.38
2018-11-10T18:47:39.377Z,9.15
2018-11-10T18:50:13.238Z,8.63
2018-11-10T18:52:48.235Z,8.33
2018-11-10T18:55:36.910Z,8.20
2018-11-10T18:58:11.610Z,9.30
2018-11-10T19:00:39.988Z,8.10
2018-11-10T19:04:23.271Z,8.78
2018-11-10T19:06:51.750Z,8.28
2018-11-10T19:09:26.951Z,7.42
2018-11-10T19:11:55.822Z,7.83
2018-11-10T19:14:24.689Z,8.60
2018-11-10T19:16:53.187Z,8.98
2018-11-10T19:19:21.842Z,9.35
2018-11-10T19:21:57.581Z,8.63
2018-11-10T19:24:28.120Z,8.03
2018-11-10T19:26:56.791Z,8.03
2018-11-10T19:29:25.457Z,8.78
2018-11-10T19:31:54.756Z,7.47
2018-11-10T19:34:23.496Z,8.65
2018-11-10T19:36:51.890Z,7.80
2018-11-10T19:39:20.325Z,8.35
2018-11-10T19:41:48.762Z,8.58
2018-11-10T19:44:17.211Z,8.85
2018-11-10T19:46:45.727Z,8.65
2018-11-10T19:49:14.240Z,7.33
2018-11-10T19:51:43.960Z,7.85
2018-11-10T19:54:44.411Z,8.13
2018-11-10T19:57:13.507Z,8.65
2018-11-10T19:59:42.093Z,9.18
2018-11-10T20:02:10.568Z,7.95
2018-11-10T20:04:38.955Z,7.97
2018-11-10T20:07:07.667Z,8.30
2018-11-10T20:09:35.987Z,7.67
2018-11-10T20:12:21.055Z,7.55
2018-11-10T20:14:49.590Z,7.40
2018-11-10T20:17:18.125Z,8.43
2018-11-10T20:19:47.099Z,8.33
2018-11-10T20:22:16.955Z,7.87
2018-11-10T20:24:45.322Z,6.62
2018-11-10T20:27:13.735Z,8.23
2018-11-10T20:29:42.187Z,8.03
2018-11-10T20:32:11.670Z,6.97
2018-11-10T20:34:40.110Z,7.50
2018-11-10T20:37:08.475Z,7.50
2018-11-10T20:39:37.007Z,6.42
2018-11-10T20:42:05.503Z,7.10
2018-11-10T20:44:33.985Z,7.12
2018-11-10T20:47:04.971Z,7.53
2018-11-10T20:49:33.422Z,7.03
2018-11-10T20:52:03.906Z,7.62
2018-11-10T20:54:32.976Z,6.72
2018-11-10T20:57:03.823Z,7.25
2018-11-10T20:59:32.261Z,7.78
2018-11-10T21:02:00.728Z,7.47
2018-11-10T21:04:34.210Z,6.70
2018-11-10T21:07:06.603Z,7.33
2018-11-10T21:09:37.296Z,8.20
2018-11-10T21:12:07.301Z,8.15
2018-11-10T21:14:37.015Z,8.80
2018-11-10T21:17:06.976Z,7.92
2018-11-10T21:19:36.987Z,7.12
2018-11-10T21:22:13.440Z,8.15
2018-11-10T21:24:42.739Z,6.55
2018-11-10T21:27:11.875Z,6.28
2018-11-10T21:29:40.575Z,6.60
2018-11-10T21:32:09.618Z,6.70
2018-11-10T21:34:38.035Z,5.75
2018-11-10T21:37:07.585Z,6.47
2018-11-10T21:39:38.375Z,7.03
2018-11-10T21:42:08.186Z,7.37
2018-11-10T21:44:36.699Z,6.55
2018-11-10T21:47:06.410Z,7.35
2018-11-10T21:49:34.901Z,7.05
2018-11-10T21:52:06.324Z,7.03
2018-11-10T21:54:37.949Z,6.97
2018-11-10T21:57:08.065Z,6.55
2018-11-10T21:59:39.421Z,7.83
2018-11-10T22:02:08.488Z,7.00
2018-11-10T22:07:19.251Z,7.10
2018-11-10T22:09:47.794Z,6.90
2018-11-10T22:12:16.250Z,6.40
2018-11-10T22:14:44.723Z,6.85
2018-11-10T22:17:13.128Z,7.83
2018-11-10T22:19:41.595Z,7.33
2018-11-10T22:22:10.804Z,8.10
2018-11-10T22:24:39.222Z,8.05
2018-11-10T22:27:07.846Z,8.13
2018-11-10T22:29:36.213Z,7.78
2018-11-10T22:32:04.812Z,7.30
2018-11-10T22:34:33.518Z,7.58
2018-11-10T22:37:03.696Z,7.65
2018-11-10T22:39:32.347Z,6.97
2018-11-10T22:42:01.800Z,7.78
2018-11-10T22:44:30.214Z,6.90
2018-11-10T22:47:02.879Z,7.30
2018-11-10T22:49:31.314Z,6.83
2018-11-10T22:52:00.709Z,6.92
2018-11-10T22:54:32.552Z,6.00
2018-11-10T22:57:06.818Z,7.50
2018-11-10T22:59:36.563Z,7.10
2018-11-10T23:02:12.235Z,6.70
2018-11-10T23:04:42.086Z,6.83
2018-11-10T23:07:10.420Z,7.67
2018-11-10T23:09:38.924Z,6.72
2018-11-10T23:12:12.967Z,6.42
2018-11-10T23:14:41.639Z,6.58
2018-11-10T23:17:10.375Z,7.40
2018-11-10T23:19:40.343Z,7.28
2018-11-10T23:22:08.935Z,6.85
2018-11-10T23:24:37.771Z,7.97
2018-11-10T23:27:08.017Z,6.80
2018-11-10T23:29:47.448Z,6.20
2018-11-10T23:32:15.774Z,7.12
2018-11-10T23:34:44.830Z,8.33
2018-11-10T23:37:14.052Z,6.80
2018-11-10T23:39:42.990Z,7.50
2018-11-10T23:42:11.394Z,7.62
2018-11-10T23:44:40.823Z,5.95
2018-11-10T23:47:09.422Z,8.35
2018-11-10T23:49:37.818Z,7.65
2018-11-10T23:52:08.271Z,6.78
2018-11-10T23:54:37.235Z,7.33
2018-11-10T23:57:06.048Z,8.30
2018-11-10T23:59:34.465Z,6.85
